KCAR 221154Z AUTO 35005KT 10SM CLR M12/M18 A3062 RMK AO2 SLP381 T11171178 11067 21122 53028